Time;durP1;ratioP1;P1;durP2;ratioP2;P2;SDS_P1;SDS_P2;PMS_P1;PMS_P2;Temp;Humidity;BMP_temperature;BMP_pressure;BME280_temperature;BME280_humidity;BME280_pressure;Samples;Min_cycle;Max_cycle;Signal;HPM_P1;HPM_P2
2023/10/01 00:05:28;;;;;;;13.50;4.70;;;;;;;11.52;100.00;98735.59;18568973;32;20389;-59
2023/10/01 00:15:31;;;;;;;14.55;4.43;;;;;;;11.55;100.00;98739.69;18569177;32;20075;-59
2023/10/01 00:25:38;;;;;;;8.48;4.03;;;;;;;11.47;100.00;98733.66;18568589;32;20124;-59
2023/10/01 00:35:42;;;;;;;11.80;4.70;;;;;;;11.34;100.00;98734.00;18568507;32;20060;-59
2023/10/01 00:45:45;;;;;;;14.67;4.80;;;;;;;11.29;100.00;98717.66;18567377;31;20075;-59
2023/10/01 00:55:48;;;;;;;12.35;4.30;;;;;;;11.31;100.00;98726.38;18553080;32;20424;-59
2023/10/01 01:05:57;;;;;;;19.73;4.65;;;;;;;11.25;100.00;98730.06;18566005;32;20489;-58
2023/10/01 01:16:00;;;;;;;11.80;4.22;;;;;;;11.18;100.00;98719.41;18565921;32;20116;-59
2023/10/01 01:26:03;;;;;;;11.55;4.22;;;;;;;11.17;100.00;98715.88;18537600;32;20068;-58
2023/10/01 01:36:17;;;;;;;9.63;4.47;;;;;;;11.03;100.00;98706.44;18564457;32;20105;-59
2023/10/01 01:46:19;;;;;;;13.55;4.05;;;;;;;10.90;100.00;98701.41;18564003;32;20342;-59
2023/10/01 01:56:21;;;;;;;10.90;3.85;;;;;;;10.92;100.00;98694.69;18549083;32;20044;-59
2023/10/01 02:06:27;;;;;;;8.40;3.62;;;;;;;10.83;100.00;98702.38;18562334;32;20436;-58
2023/10/01 02:16:38;;;;;;;12.10;4.07;;;;;;;10.71;100.00;98704.34;18562426;32;20044;-58
2023/10/01 02:26:42;;;;;;;14.23;4.32;;;;;;;10.73;100.00;98685.16;18561654;32;20426;-58
2023/10/01 02:36:44;;;;;;;12.23;3.83;;;;;;;10.65;100.00;98683.69;18560545;31;20044;-58
2023/10/01 02:46:50;;;;;;;10.47;4.60;;;;;;;10.51;100.00;98684.00;18560668;32;20087;-58
2023/10/01 02:57:11;;;;;;;11.00;3.92;;;;;;;10.42;100.00;98673.84;18560479;32;20067;-58
2023/10/01 03:07:15;;;;;;;10.40;3.70;;;;;;;10.40;100.00;98674.09;18559902;32;20045;-58
2023/10/01 03:17:18;;;;;;;10.88;4.55;;;;;;;10.37;100.00;98669.16;18545942;32;20044;-58
2023/10/01 03:37:30;;;;;;;10.47;4.53;;;;;;;10.24;100.00;98661.34;18559214;32;20115;-60
2023/10/01 03:47:34;;;;;;;8.70;3.87;;;;;;;10.22;100.00;98658.03;18555509;32;20072;-61
2023/10/01 03:57:52;;;;;;;11.47;4.23;;;;;;;10.08;100.00;98658.34;18570530;32;20432;-61
2023/10/01 04:07:58;;;;;;;9.07;3.67;;;;;;;10.09;100.00;98667.28;18569733;32;20089;-61
2023/10/01 04:28:20;;;;;;;13.33;4.30;;;;;;;9.99;100.00;98681.44;18569091;32;20061;-61
2023/10/01 04:38:26;;;;;;;9.80;4.00;;;;;;;9.96;100.00;98677.31;18568246;32;20108;-61
2023/10/01 04:48:29;;;;;;;11.00;4.27;;;;;;;9.89;100.00;98679.31;18554005;32;20079;-60
2023/10/01 04:58:38;;;;;;;7.57;3.50;;;;;;;9.93;100.00;98683.19;18566530;32;20516;-61
2023/10/01 05:08:42;;;;;;;8.30;2.60;;;;;;;9.93;100.00;98674.28;18552054;32;20052;-58
2023/10/01 05:18:46;;;;;;;6.50;3.50;;;;;;;9.77;100.00;98668.59;18565536;32;20071;-58
2023/10/01 05:28:48;;;;;;;7.00;3.70;;;;;;;9.68;100.00;98669.22;18565045;32;20257;-60
2023/10/01 05:38:54;;;;;;;10.27;3.93;;;;;;;9.54;100.00;98661.38;18550601;32;20045;-61
2023/10/01 05:49:00;;;;;;;11.43;3.83;;;;;;;9.52;100.00;98666.16;18563913;32;20112;-61
2023/10/01 05:59:04;;;;;;;13.80;4.97;;;;;;;9.53;100.00;98684.03;18563423;32;20040;-58
2023/10/01 06:09:09;;;;;;;12.70;4.80;;;;;;;9.62;100.00;98681.75;18561595;31;20053;-58
2023/10/01 06:19:14;;;;;;;8.10;4.07;;;;;;;9.69;100.00;98689.72;18562067;32;20104;-60
2023/10/01 06:29:16;;;;;;;7.05;4.15;;;;;;;9.68;100.00;98688.09;18561413;32;20056;-61
2023/10/01 06:39:19;;;;;;;8.77;3.67;;;;;;;9.88;100.00;98687.69;18561231;32;20061;-58
2023/10/01 06:49:23;;;;;;;8.77;4.00;;;;;;;10.10;100.00;98682.41;18546770;32;20045;-58
2023/10/01 06:59:27;;;;;;;11.03;4.60;;;;;;;10.38;100.00;98678.09;18546965;32;20097;-58
2023/10/01 07:09:34;;;;;;;9.40;4.90;;;;;;;10.70;100.00;98681.06;18559833;32;20368;-58
2023/10/01 07:19:37;;;;;;;11.98;5.40;;;;;;;11.07;100.00;98683.25;18552386;32;20448;-58
2023/10/01 07:29:42;;;;;;;9.85;4.80;;;;;;;11.42;100.00;98676.69;18572228;32;20138;-58
2023/10/01 07:39:44;;;;;;;11.70;5.80;;;;;;;11.77;100.00;98678.22;18557601;32;20064;-58
2023/10/01 07:49:47;;;;;;;12.35;4.87;;;;;;;12.10;100.00;98703.56;18571203;32;20467;-58
2023/10/01 07:59:53;;;;;;;12.32;5.93;;;;;;;12.51;100.00;98698.56;18570437;31;20056;-58
2023/10/01 08:09:59;;;;;;;13.65;6.35;;;;;;;12.85;100.00;98711.03;18570051;32;20375;-58
2023/10/01 08:30:38;;;;;;;12.02;6.50;;;;;;;13.43;100.00;98713.91;18568096;32;20069;-59
2023/10/01 08:40:42;;;;;;;13.45;6.07;;;;;;;13.81;100.00;98709.19;18567965;32;20092;-58
2023/10/01 08:50:45;;;;;;;14.13;6.53;;;;;;;14.29;100.00;98713.69;18567654;31;20052;-58
2023/10/01 09:00:56;;;;;;;13.80;6.87;;;;;;;14.71;100.00;98715.44;18566809;32;20048;-59
2023/10/01 09:11:10;;;;;;;15.13;6.75;;;;;;;15.19;100.00;98726.84;18566201;32;20049;-59
2023/10/01 09:21:28;;;;;;;16.65;7.43;;;;;;;15.67;100.00;98731.13;18565820;32;20036;-59
2023/10/01 09:31:52;;;;;;;19.77;8.18;;;;;;;16.09;100.00;98719.78;18565072;32;20052;-59
2023/10/01 09:41:57;;;;;;;16.92;7.93;;;;;;;16.49;100.00;98736.22;18563760;31;20462;-59
2023/10/01 09:52:05;;;;;;;14.77;7.23;;;;;;;16.65;100.00;98727.91;18563849;32;20065;-59
2023/10/01 10:02:11;;;;;;;16.00;6.55;;;;;;;17.14;100.00;98731.66;18563018;32;20065;-59
2023/10/01 10:12:33;;;;;;;15.80;7.37;;;;;;;17.37;100.00;98721.88;18562280;32;20372;-59
2023/10/01 10:22:38;;;;;;;13.83;6.27;;;;;;;17.71;100.00;98715.50;18562016;32;20045;-59
2023/10/01 10:33:30;;;;;;;15.30;8.03;;;;;;;17.82;100.00;98700.59;18561345;32;20067;-59
2023/10/01 10:43:33;;;;;;;14.25;6.32;;;;;;;18.05;100.00;98698.16;18555638;32;20427;-59
2023/10/01 10:53:37;;;;;;;13.47;7.30;;;;;;;18.40;100.00;98694.09;18560222;32;20115;-59
2023/10/01 11:03:43;;;;;;;17.27;7.85;;;;;;;18.54;100.00;98685.97;18560071;32;20052;-59
2023/10/01 11:13:47;;;;;;;14.87;6.72;;;;;;;18.74;100.00;98675.78;18559575;32;20089;-59
2023/10/01 11:23:53;;;;;;;15.43;7.20;;;;;;;19.02;100.00;98662.16;18559388;32;20093;-59
2023/10/01 11:34:05;;;;;;;14.07;6.75;;;;;;;19.51;100.00;98651.66;18559227;32;20060;-59
2023/10/01 11:44:22;;;;;;;15.95;7.22;;;;;;;20.22;100.00;98641.09;18558948;32;20119;-59
2023/10/01 11:54:45;;;;;;;13.23;6.82;;;;;;;20.97;100.00;98626.94;18559067;32;20045;-59
2023/10/01 12:04:56;;;;;;;14.20;6.85;;;;;;;21.54;100.00;98620.72;18562242;32;20044;-58
2023/10/01 12:25:42;;;;;;;16.90;7.85;;;;;;;22.35;100.00;98591.03;18568885;31;20050;-60
2023/10/01 12:35:42;;;;;;;;;;;;;;;22.76;100.00;98584.16;18568706;32;20049;-60
2023/10/01 12:45:45;;;;;;;19.50;7.87;;;;;;;23.19;100.00;98576.91;18554133;32;19952;-59
2023/10/01 12:55:56;;;;;;;;;;;;;;;23.41;100.00;98570.28;18567464;32;20086;-59
2023/10/01 13:06:05;;;;;;;17.48;8.88;;;;;;;22.88;100.00;98563.34;18566568;32;19948;-59
2023/10/01 13:16:16;;;;;;;17.50;8.35;;;;;;;22.90;100.00;98548.09;18566038;32;20318;-59
2023/10/01 13:26:31;;;;;;;17.23;8.10;;;;;;;22.64;100.00;98543.47;18565102;32;20083;-59
2023/10/01 14:18:08;;;;;;;18.10;7.43;;;;;;;22.31;100.00;98507.37;18562108;32;20048;-59
2023/10/01 14:28:34;;;;;;;16.73;8.45;;;;;;;22.17;95.21;98489.09;18560939;32;20104;-59
2023/10/01 14:38:37;;;;;;;13.88;7.43;;;;;;;22.12;94.88;98475.50;18561111;32;20044;-59
2023/10/01 14:48:45;;;;;;;15.30;7.90;;;;;;;22.61;95.91;98478.00;18560617;32;20067;-59
2023/10/01 14:58:51;;;;;;;16.70;7.87;;;;;;;22.45;100.00;98471.41;18560561;32;20083;-59
2023/10/01 15:08:58;;;;;;;15.10;8.05;;;;;;;22.27;93.31;98462.31;18559488;32;20116;-59
2023/10/01 15:19:04;;;;;;;13.82;7.20;;;;;;;21.98;92.04;98461.09;18560360;32;20520;-59
2023/10/01 15:29:08;;;;;;;15.60;8.07;;;;;;;21.71;100.00;98456.75;18559849;32;20067;-59
2023/10/01 15:49:39;;;;;;;;;;;;;;;20.92;100.00;98448.38;18571643;32;20459;-59
2023/10/01 15:59:48;;;;;;;14.63;8.07;;;;;;;20.58;100.00;98439.69;18571046;32;19971;-59
2023/10/01 16:09:51;;;;;;;17.65;8.10;;;;;;;20.24;100.00;98445.81;18569550;31;20041;-59
2023/10/01 16:19:56;;;;;;;18.05;8.38;;;;;;;19.81;100.00;98444.41;18569741;32;20141;-59
2023/10/01 16:30:22;;;;;;;18.02;7.97;;;;;;;19.59;100.00;98447.94;18568927;32;20044;-59
2023/10/01 16:40:27;;;;;;;17.08;9.82;;;;;;;19.32;100.00;98446.91;18568389;32;20068;-59
2023/10/01 16:51:18;;;;;;;16.35;9.23;;;;;;;18.99;100.00;98462.72;18567113;32;20048;-59
2023/10/01 17:01:46;;;;;;;16.52;7.55;;;;;;;18.70;100.00;98464.59;18566655;31;20076;-59
2023/10/01 17:12:03;;;;;;;16.50;7.68;;;;;;;18.42;100.00;98466.53;18565858;32;20033;-59
2023/10/01 17:22:07;;;;;;;12.93;7.50;;;;;;;17.95;100.00;98459.13;18565786;32;20071;-59
2023/10/01 17:32:20;;;;;;;15.07;7.70;;;;;;;17.60;100.00;98458.53;18564898;32;20384;-59
2023/10/01 17:42:25;;;;;;;14.30;7.28;;;;;;;17.27;100.00;98455.75;18564477;32;20052;-59
2023/10/01 17:52:34;;;;;;;12.35;7.45;;;;;;;16.87;100.00;98467.97;18563957;32;20041;-59
2023/10/01 18:02:40;;;;;;;21.95;11.63;;;;;;;16.54;100.00;98479.56;18563191;32;20048;-59
2023/10/01 18:12:45;;;;;;;16.00;8.57;;;;;;;16.26;100.00;98475.72;18562355;32;20448;-59
2023/10/01 18:22:54;;;;;;;16.73;8.63;;;;;;;16.01;100.00;98484.97;18547740;32;20358;-59
2023/10/01 18:32:57;;;;;;;18.17;9.40;;;;;;;15.72;100.00;98481.06;18561743;32;20433;-59
2023/10/01 18:43:01;;;;;;;18.00;9.07;;;;;;;15.45;100.00;98478.78;18560959;32;20333;-59
2023/10/01 18:53:05;;;;;;;19.85;9.80;;;;;;;15.28;100.00;98479.19;18560404;32;20056;-59
2023/10/01 19:03:07;;;;;;;17.77;10.07;;;;;;;15.14;100.00;98503.47;18560884;32;20067;-58
2023/10/01 19:13:13;;;;;;;15.38;7.80;;;;;;;14.93;100.00;98501.94;18563383;32;20053;-58
2023/10/01 19:23:31;;;;;;;12.45;7.15;;;;;;;14.74;100.00;98507.97;18573097;32;20053;-58
2023/10/01 19:33:37;;;;;;;13.18;6.95;;;;;;;14.64;100.00;98510.75;18558136;32;20100;-58
2023/10/01 19:43:40;;;;;;;16.05;7.37;;;;;;;14.42;100.00;98517.28;18571715;31;20049;-58
2023/10/01 19:53:43;;;;;;;15.93;7.75;;;;;;;14.29;100.00;98517.81;18571183;32;20071;-58
2023/10/01 20:03:54;;;;;;;18.50;8.38;;;;;;;14.13;100.00;98522.44;18570432;32;20354;-58
2023/10/01 20:14:00;;;;;;;12.70;7.07;;;;;;;13.98;100.00;98517.84;18569915;32;20048;-58
2023/10/01 20:24:13;;;;;;;15.43;6.60;;;;;;;13.80;100.00;98511.84;18541945;32;20374;-59
2023/10/01 20:34:20;;;;;;;16.90;7.03;;;;;;;13.63;100.00;98516.72;18568918;32;20044;-58
2023/10/01 20:44:24;;;;;;;12.13;7.07;;;;;;;13.46;100.00;98517.78;18567894;31;20048;-58
2023/10/01 20:54:32;;;;;;;13.73;6.80;;;;;;;13.29;100.00;98507.13;18567576;32;20062;-58
2023/10/01 21:04:36;;;;;;;15.50;6.62;;;;;;;13.17;100.00;98507.34;18539588;32;20057;-58
2023/10/01 21:14:46;;;;;;;;;;;;;;;13.12;100.00;98504.59;18566302;32;20469;-58
2023/10/01 21:24:50;;;;;;;19.05;7.25;;;;;;;13.07;100.00;98501.03;18566159;32;20328;-59
2023/10/01 21:34:54;;;;;;;14.32;7.12;;;;;;;13.01;100.00;98501.03;18564880;31;20048;-59
2023/10/01 21:45:09;;;;;;;14.47;7.03;;;;;;;12.83;100.00;98488.72;18550124;32;20075;-59
2023/10/01 21:55:16;;;;;;;13.07;6.40;;;;;;;12.64;100.00;98484.84;18563967;32;20053;-59
2023/10/01 22:05:19;;;;;;;11.20;5.80;;;;;;;12.46;100.00;98476.06;18563082;32;20131;-59
2023/10/01 22:15:27;;;;;;;14.97;6.83;;;;;;;12.42;100.00;98474.97;18548254;32;20036;-59
2023/10/01 22:25:32;;;;;;;12.45;6.43;;;;;;;12.40;100.00;98473.56;18562160;32;20428;-59
2023/10/01 22:35:35;;;;;;;10.77;5.95;;;;;;;12.23;100.00;98473.75;18561460;32;20440;-59
2023/10/01 22:45:49;;;;;;;12.30;6.05;;;;;;;12.11;100.00;98463.91;18546697;32;20071;-59
2023/10/01 22:55:54;;;;;;;11.70;5.53;;;;;;;12.08;100.00;98467.13;18560926;32;20104;-59
2023/10/01 23:06:02;;;;;;;9.75;5.30;;;;;;;11.94;100.00;98455.09;18560087;32;20079;-59
2023/10/01 23:16:28;;;;;;;16.48;6.75;;;;;;;11.84;100.00;98458.50;18560235;32;20045;-59
2023/10/01 23:26:29;;;;;;;11.57;6.07;;;;;;;11.69;100.00;98459.22;18559545;31;20087;-59
2023/10/01 23:36:37;;;;;;;17.42;6.40;;;;;;;11.51;100.00;98463.94;18545560;32;20093;-58
2023/10/01 23:46:39;;;;;;;15.23;6.57;;;;;;;11.55;100.00;98458.00;18532185;32;20409;-58
2023/10/01 23:56:41;;;;;;;11.15;6.07;;;;;;;11.51;100.00;98453.09;18559167;32;20049;-58
